createdAt,value
2023-04-27T00:05:23.380Z,83.26
2023-04-27T00:15:23.540Z,84.70
2023-04-27T00:25:23.839Z,86.35
2023-04-27T00:35:23.776Z,85.94
2023-04-27T00:45:24.068Z,86.63
2023-04-27T00:55:24.146Z,84.33
2023-04-27T01:05:24.356Z,83.29
2023-04-27T01:15:24.552Z,80.58
2023-04-27T01:25:24.809Z,85.71
2023-04-27T01:35:28.155Z,84.92
2023-04-27T01:45:25.154Z,86.10
2023-04-27T01:55:25.243Z,88.16
2023-04-27T02:05:25.712Z,87.17
2023-04-27T02:15:25.548Z,89.03
2023-04-27T02:25:25.764Z,88.14
2023-04-27T02:35:25.969Z,89.11
2023-04-27T02:45:26.200Z,92.67
2023-04-27T02:55:26.312Z,91.63
2023-04-27T03:05:26.510Z,90.60
2023-04-27T03:15:26.702Z,89.01
2023-04-27T03:25:27.004Z,90.41
2023-04-27T03:35:26.966Z,90.37
2023-04-27T03:45:27.183Z,86.96
2023-04-27T03:55:27.374Z,90.68
2023-04-27T04:05:27.815Z,89.54
2023-04-27T04:15:27.756Z,90.64
2023-04-27T04:25:27.982Z,90.80
2023-04-27T04:35:28.304Z,91.73
2023-04-27T04:45:28.618Z,89.42
2023-04-27T04:55:28.883Z,90.25
2023-04-27T05:05:28.774Z,89.42
2023-04-27T05:15:28.953Z,88.10
2023-04-27T05:25:29.162Z,82.19
2023-04-27T05:35:29.355Z,84.42
2023-04-27T05:45:29.594Z,85.26
2023-04-27T05:55:29.676Z,84.98
2023-04-27T06:05:29.943Z,85.28
2023-04-27T06:15:30.159Z,85.62
2023-04-27T06:25:30.132Z,85.03
2023-04-27T06:35:30.296Z,83.76
2023-04-27T06:45:30.745Z,82.39
2023-04-27T06:55:31.383Z,80.16
2023-04-27T07:05:30.722Z,77.32
2023-04-27T07:15:30.919Z,74.87
2023-04-27T07:25:31.030Z,72.31
2023-04-27T07:35:31.208Z,69.29
2023-04-27T07:45:31.435Z,66.74
2023-04-27T07:55:31.515Z,67.38
2023-04-27T08:05:32.083Z,63.67
2023-04-27T08:15:31.837Z,59.94
2023-04-27T08:25:32.049Z,59.61
2023-04-27T08:35:32.217Z,58.81
2023-04-27T08:45:32.614Z,60.75
2023-04-27T08:55:32.526Z,60.41
2023-04-27T09:05:32.844Z,57.51
2023-04-27T09:15:32.903Z,46.66
2023-04-27T09:25:33.146Z,50.11
2023-04-27T09:35:33.313Z,49.01
2023-04-27T09:45:33.658Z,50.74
2023-04-27T09:55:33.625Z,46.10
2023-04-27T10:05:34.147Z,44.55
2023-04-27T10:15:34.077Z,47.67
2023-04-27T10:25:34.166Z,46.37
2023-04-27T10:35:34.631Z,49.24
2023-04-27T10:45:34.516Z,45.21
2023-04-27T10:55:34.676Z,39.45
2023-04-27T11:05:34.861Z,43.54
2023-04-27T11:15:35.139Z,44.14
2023-04-27T11:25:35.223Z,44.06
2023-04-27T11:35:35.832Z,44.28
2023-04-27T11:45:35.567Z,43.00
2023-04-27T11:55:35.944Z,42.76
2023-04-27T12:05:35.981Z,43.22
2023-04-27T12:15:36.194Z,44.75
2023-04-27T12:25:36.151Z,44.40
2023-04-27T12:35:36.440Z,41.33
2023-04-27T12:45:38.319Z,41.46
2023-04-27T12:55:36.706Z,44.96
2023-04-27T13:05:36.997Z,38.89
2023-04-27T13:15:37.306Z,44.24
2023-04-27T13:25:37.234Z,42.57
2023-04-27T13:35:37.290Z,41.33
2023-04-27T13:45:37.794Z,42.13
2023-04-27T13:55:37.624Z,38.68
2023-04-27T14:05:38.032Z,42.11
2023-04-27T14:15:37.960Z,41.77
2023-04-27T14:25:38.303Z,40.57
2023-04-27T14:35:38.366Z,42.03
2023-04-27T14:45:50.213Z,44.04
2023-04-27T14:55:39.713Z,45.49
2023-04-27T15:05:39.332Z,42.41
2023-04-27T15:15:39.057Z,43.90
2023-04-27T15:25:39.139Z,40.41
2023-04-27T15:35:39.596Z,40.75
2023-04-27T15:45:39.461Z,43.42
2023-04-27T15:55:39.849Z,43.42
2023-04-27T16:05:39.860Z,46.64
2023-04-27T16:15:40.102Z,47.97
2023-04-27T16:25:40.244Z,45.50
2023-04-27T16:35:40.328Z,42.38
2023-04-27T16:45:40.590Z,40.44
2023-04-27T16:55:40.902Z,45.31
2023-04-27T17:05:40.945Z,45.12
2023-04-27T17:15:41.024Z,42.55
2023-04-27T17:25:41.111Z,43.05
2023-04-27T17:35:41.281Z,43.88
2023-04-27T17:45:41.491Z,53.67
2023-04-27T17:55:41.632Z,59.70
2023-04-27T18:05:41.842Z,64.64
2023-04-27T18:15:41.977Z,64.73
2023-04-27T18:25:42.177Z,66.12
2023-04-27T18:35:42.318Z,70.04
2023-04-27T18:45:42.791Z,69.36
2023-04-27T18:55:42.625Z,71.12
2023-04-27T19:05:43.051Z,70.34
2023-04-27T19:15:43.264Z,69.09
2023-04-27T19:25:43.165Z,69.57
2023-04-27T19:35:43.557Z,73.02
2023-04-27T19:45:43.407Z,74.11
2023-04-27T19:55:43.763Z,79.52
2023-04-27T20:05:43.906Z,81.54
2023-04-27T20:15:43.837Z,80.04
2023-04-27T20:25:44.043Z,77.51
2023-04-27T20:35:44.674Z,77.52
2023-04-27T20:45:44.458Z,80.62
2023-04-27T20:55:44.621Z,81.88
2023-04-27T21:05:44.823Z,82.20
2023-04-27T21:15:44.967Z,84.24
2023-04-27T21:25:45.163Z,83.76
2023-04-27T21:35:45.692Z,83.42
2023-04-27T21:45:45.423Z,86.16
2023-04-27T21:55:45.554Z,87.63
2023-04-27T22:05:45.746Z,86.75
2023-04-27T22:15:45.982Z,88.39
2023-04-27T22:25:46.103Z,87.57
2023-04-27T22:35:46.270Z,85.63
2023-04-27T22:45:46.485Z,87.06
2023-04-27T22:55:46.584Z,87.85
2023-04-27T23:05:46.832Z,87.82
2023-04-27T23:15:47.020Z,87.06
2023-04-27T23:25:47.214Z,87.61
2023-04-27T23:35:47.601Z,86.85
2023-04-27T23:45:47.553Z,86.16
2023-04-27T23:55:47.914Z,82.95
